createdAt,value
2023-06-25T00:02:06.895Z,21.53
2023-06-25T00:04:35.064Z,21.50
2023-06-25T00:07:03.060Z,21.46
2023-06-25T00:09:31.242Z,21.42
2023-06-25T00:11:59.483Z,21.36
2023-06-25T00:14:28.051Z,21.30
2023-06-25T00:16:59.145Z,21.24
2023-06-25T00:19:28.324Z,21.17
2023-06-25T00:21:56.569Z,21.12
2023-06-25T00:24:24.656Z,21.07
2023-06-25T00:26:52.835Z,21.03
2023-06-25T00:29:22.150Z,21.01
2023-06-25T00:31:50.197Z,20.99
2023-06-25T00:34:20.589Z,20.97
2023-06-25T00:36:53.039Z,20.95
2023-06-25T00:39:21.565Z,20.94
2023-06-25T00:41:50.192Z,20.94
2023-06-25T00:44:18.206Z,20.94
2023-06-25T00:46:46.173Z,20.95
2023-06-25T00:49:14.783Z,20.96
2023-06-25T00:51:43.685Z,20.99
2023-06-25T00:54:12.182Z,21.00
2023-06-25T00:56:40.343Z,20.99
2023-06-25T00:59:08.520Z,20.93
2023-06-25T01:01:49.945Z,20.85
2023-06-25T01:04:24.849Z,20.76
2023-06-25T01:06:57.215Z,20.72
2023-06-25T01:09:26.410Z,20.68
2023-06-25T01:12:02.468Z,20.64
2023-06-25T01:14:30.495Z,20.63
2023-06-25T01:16:58.808Z,20.57
2023-06-25T01:19:32.866Z,20.49
2023-06-25T01:22:03.895Z,20.42
2023-06-25T01:24:35.794Z,20.36
2023-06-25T01:27:05.666Z,20.33
2023-06-25T01:29:36.707Z,20.31
2023-06-25T01:32:08.259Z,20.27
2023-06-25T01:34:36.699Z,20.21
2023-06-25T01:37:07.755Z,20.18
2023-06-25T01:39:35.985Z,20.16
2023-06-25T01:42:04.744Z,20.14
2023-06-25T01:44:33.709Z,20.09
2023-06-25T01:47:02.197Z,20.04
2023-06-25T01:49:33.061Z,20.01
2023-06-25T01:52:02.639Z,19.97
2023-06-25T01:54:30.662Z,19.94
2023-06-25T01:56:58.701Z,19.92
2023-06-25T01:59:27.057Z,19.92
2023-06-25T02:01:56.170Z,19.93
2023-06-25T02:04:26.188Z,19.94
2023-06-25T02:06:54.877Z,19.97
2023-06-25T02:09:23.645Z,19.98
2023-06-25T02:11:51.735Z,19.97
2023-06-25T02:14:19.784Z,19.89
2023-06-25T02:16:47.873Z,19.84
2023-06-25T02:19:16.609Z,19.82
2023-06-25T02:21:44.926Z,19.82
2023-06-25T02:24:12.990Z,19.84
2023-06-25T02:26:43.024Z,19.87
2023-06-25T02:29:11.029Z,19.88
2023-06-25T02:31:39.190Z,19.90
2023-06-25T02:34:07.388Z,19.94
2023-06-25T02:36:35.654Z,19.97
2023-06-25T02:39:04.298Z,19.98
2023-06-25T02:41:32.263Z,20.00
2023-06-25T02:44:00.575Z,20.03
2023-06-25T02:46:29.081Z,20.05
2023-06-25T02:48:58.138Z,20.06
2023-06-25T02:51:26.300Z,20.04
2023-06-25T02:53:54.461Z,19.99
2023-06-25T02:56:22.380Z,19.93
2023-06-25T02:58:50.365Z,19.88
2023-06-25T03:01:19.244Z,19.84
2023-06-25T03:03:48.043Z,19.81
2023-06-25T03:06:15.997Z,19.79
2023-06-25T03:08:44.158Z,19.76
2023-06-25T03:11:12.311Z,19.72
2023-06-25T03:13:40.436Z,19.71
2023-06-25T03:16:08.574Z,19.70
2023-06-25T03:18:36.670Z,19.70
2023-06-25T03:21:04.699Z,19.72
2023-06-25T03:23:34.303Z,19.72
2023-06-25T03:26:02.686Z,19.74
2023-06-25T03:28:31.155Z,19.76
2023-06-25T03:30:59.245Z,19.80
2023-06-25T03:33:28.320Z,19.84
2023-06-25T03:35:58.339Z,19.87
2023-06-25T03:38:26.821Z,19.90
2023-06-25T03:40:55.092Z,19.93
2023-06-25T03:43:23.031Z,19.96
2023-06-25T03:45:51.772Z,20.00
2023-06-25T03:48:20.228Z,20.08
2023-06-25T03:50:48.772Z,20.17
2023-06-25T03:53:19.109Z,20.28
2023-06-25T03:55:47.547Z,20.37
2023-06-25T03:58:15.540Z,20.46
2023-06-25T04:00:43.878Z,20.56
2023-06-25T04:03:12.694Z,20.61
2023-06-25T04:05:41.194Z,20.60
2023-06-25T04:08:09.340Z,20.58
2023-06-25T04:10:39.155Z,20.48
2023-06-25T04:13:07.520Z,20.39
2023-06-25T04:15:36.218Z,20.29
2023-06-25T04:18:04.433Z,20.23
2023-06-25T04:20:32.967Z,20.19
2023-06-25T04:23:01.402Z,20.16
2023-06-25T04:25:30.115Z,20.14
2023-06-25T04:27:58.915Z,20.11
2023-06-25T04:30:27.115Z,20.10
2023-06-25T04:32:56.311Z,20.05
2023-06-25T04:35:24.615Z,20.04
2023-06-25T04:37:53.075Z,20.04
2023-06-25T04:40:21.118Z,20.05
2023-06-25T04:42:49.413Z,20.06
2023-06-25T04:45:17.912Z,20.10
2023-06-25T04:47:46.220Z,20.13
2023-06-25T04:50:14.725Z,20.17
2023-06-25T04:52:42.916Z,20.21
2023-06-25T04:55:11.289Z,20.25
2023-06-25T04:57:40.333Z,20.29
2023-06-25T05:00:09.644Z,20.36
2023-06-25T05:02:37.680Z,20.41
2023-06-25T05:05:06.590Z,20.44
2023-06-25T05:07:34.815Z,20.50
2023-06-25T05:10:02.983Z,20.56
2023-06-25T05:12:30.876Z,20.61
2023-06-25T05:14:59.130Z,20.65
2023-06-25T05:17:27.302Z,20.70
2023-06-25T05:19:55.313Z,20.77
2023-06-25T05:22:23.549Z,20.86
2023-06-25T05:24:51.550Z,20.92
2023-06-25T05:27:19.891Z,20.94
2023-06-25T05:29:47.990Z,20.94
2023-06-25T05:32:17.983Z,20.95
2023-06-25T05:34:46.159Z,20.90
2023-06-25T05:37:14.221Z,20.90
2023-06-25T05:39:42.303Z,20.92
2023-06-25T05:42:10.483Z,20.94
2023-06-25T05:44:38.655Z,20.99
2023-06-25T05:47:07.004Z,21.05
2023-06-25T05:49:35.216Z,21.11
2023-06-25T05:52:03.270Z,21.16
2023-06-25T05:54:31.251Z,21.20
2023-06-25T05:56:59.249Z,21.25
2023-06-25T05:59:27.366Z,21.28
2023-06-25T06:01:55.559Z,21.31
2023-06-25T06:04:23.565Z,21.35
2023-06-25T06:06:51.499Z,21.40
2023-06-25T06:09:19.897Z,21.46
2023-06-25T06:11:47.861Z,21.53
2023-06-25T06:14:15.876Z,21.62
2023-06-25T06:16:43.979Z,21.73
2023-06-25T06:19:12.067Z,21.83
2023-06-25T06:21:40.248Z,21.89
2023-06-25T06:24:08.504Z,21.93
2023-06-25T06:26:36.994Z,21.91
2023-06-25T06:29:05.487Z,21.93
2023-06-25T06:31:33.866Z,22.02
2023-06-25T06:34:02.062Z,22.18
2023-06-25T06:36:30.128Z,22.32
2023-06-25T06:38:58.066Z,22.47
2023-06-25T06:41:26.016Z,22.64
2023-06-25T06:43:54.115Z,22.79
2023-06-25T06:46:22.291Z,22.91
2023-06-25T06:48:50.291Z,23.00
2023-06-25T06:51:18.230Z,22.99
2023-06-25T06:53:46.158Z,22.92
2023-06-25T06:56:14.297Z,22.85
2023-06-25T06:58:42.540Z,22.80
2023-06-25T07:01:10.551Z,22.77
2023-06-25T07:03:38.689Z,22.78
2023-06-25T07:06:07.071Z,22.69
2023-06-25T07:08:35.020Z,22.62
2023-06-25T07:11:03.562Z,22.60
2023-06-25T07:13:33.193Z,22.57
2023-06-25T07:16:01.193Z,22.57
2023-06-25T07:18:29.112Z,22.61
2023-06-25T07:20:57.981Z,22.68
2023-06-25T07:23:26.637Z,22.76
2023-06-25T07:25:55.230Z,22.83
2023-06-25T07:28:23.246Z,22.89
2023-06-25T07:30:51.278Z,22.95
2023-06-25T07:33:19.465Z,23.02
2023-06-25T07:35:47.719Z,23.06
2023-06-25T07:38:16.097Z,23.13
2023-06-25T07:40:44.180Z,23.22
2023-06-25T07:43:12.625Z,23.30
2023-06-25T07:45:41.409Z,23.30
2023-06-25T07:48:09.743Z,23.25
2023-06-25T07:50:37.909Z,23.26
2023-06-25T07:53:05.887Z,23.33
2023-06-25T07:55:56.191Z,23.42
2023-06-25T07:58:29.958Z,23.54
2023-06-25T08:00:58.035Z,23.68
2023-06-25T08:03:26.804Z,23.80
2023-06-25T08:05:54.941Z,23.89
2023-06-25T08:08:23.063Z,23.91
2023-06-25T08:10:53.000Z,23.87
2023-06-25T08:13:22.051Z,23.79
2023-06-25T08:18:51.201Z,23.72
2023-06-25T08:21:19.227Z,23.72
2023-06-25T08:23:47.343Z,23.80
2023-06-25T08:26:17.195Z,23.91
2023-06-25T08:28:45.409Z,24.03
2023-06-25T08:31:13.697Z,24.11
2023-06-25T08:33:41.883Z,24.15
2023-06-25T08:36:10.119Z,24.23
2023-06-25T08:38:38.321Z,24.25
2023-06-25T08:41:06.511Z,24.18
2023-06-25T08:43:35.036Z,24.22
2023-06-25T08:46:03.919Z,24.29
2023-06-25T08:48:35.019Z,24.41
2023-06-25T08:51:08.411Z,24.55
2023-06-25T08:53:37.324Z,24.65
2023-06-25T08:56:06.670Z,24.84
2023-06-25T08:58:36.716Z,25.04
2023-06-25T09:01:05.221Z,25.13
2023-06-25T09:03:33.284Z,25.19
2023-06-25T09:06:01.541Z,25.23
2023-06-25T09:08:29.723Z,25.31
2023-06-25T09:10:58.235Z,25.37
2023-06-25T09:13:28.285Z,25.35
2023-06-25T09:16:04.508Z,25.35
2023-06-25T09:18:32.674Z,25.33
2023-06-25T09:21:05.437Z,25.33
2023-06-25T09:23:34.222Z,25.30
2023-06-25T09:26:14.327Z,25.30
2023-06-25T09:29:00.868Z,25.32
2023-06-25T09:31:34.069Z,25.39
2023-06-25T09:34:05.418Z,25.45
2023-06-25T09:36:39.134Z,25.42
2023-06-25T09:39:09.628Z,25.42
2023-06-25T09:41:41.790Z,25.38
2023-06-25T09:44:11.068Z,25.32
2023-06-25T09:46:41.604Z,25.39
2023-06-25T09:49:10.143Z,25.43
2023-06-25T09:51:52.484Z,25.41
2023-06-25T09:54:23.445Z,25.51
2023-06-25T09:56:52.703Z,25.59
2023-06-25T09:59:22.612Z,25.70
2023-06-25T10:01:54.024Z,25.78
2023-06-25T10:04:23.283Z,25.83
2023-06-25T10:06:52.161Z,25.87
2023-06-25T10:09:20.401Z,25.89
2023-06-25T10:11:52.950Z,25.86
2023-06-25T10:14:21.048Z,25.78
2023-06-25T10:16:57.527Z,25.69
2023-06-25T10:19:27.827Z,25.55
2023-06-25T10:22:05.471Z,25.41
2023-06-25T10:24:44.694Z,25.27
2023-06-25T10:27:22.428Z,25.14
2023-06-25T10:29:51.126Z,24.98
2023-06-25T10:32:23.491Z,24.78
2023-06-25T10:35:01.420Z,24.62
2023-06-25T10:37:34.587Z,24.47
2023-06-25T10:40:08.754Z,24.32
2023-06-25T10:42:38.291Z,24.18
2023-06-25T10:45:08.170Z,24.02
2023-06-25T10:47:36.594Z,23.76
2023-06-25T10:50:05.232Z,23.36
2023-06-25T10:52:33.226Z,22.89
2023-06-25T10:55:03.258Z,22.54
2023-06-25T10:57:33.290Z,22.34
2023-06-25T11:00:01.960Z,22.21
2023-06-25T11:02:30.983Z,22.18
2023-06-25T11:05:04.119Z,22.15
2023-06-25T11:07:33.210Z,22.12
2023-06-25T11:10:02.260Z,22.10
2023-06-25T11:12:31.937Z,22.11
2023-06-25T11:15:00.846Z,22.16
2023-06-25T11:17:29.618Z,22.20
2023-06-25T11:19:59.417Z,22.23
2023-06-25T11:22:28.083Z,22.24
2023-06-25T11:24:58.180Z,22.26
2023-06-25T11:27:28.255Z,22.33
2023-06-25T11:29:56.506Z,22.40
2023-06-25T11:32:27.870Z,22.45
2023-06-25T11:34:58.722Z,22.51
2023-06-25T11:37:29.236Z,22.56
2023-06-25T11:39:57.932Z,22.60
2023-06-25T11:42:26.741Z,22.60
2023-06-25T11:45:08.875Z,22.60
2023-06-25T11:47:37.030Z,22.61
2023-06-25T11:50:05.628Z,22.62
2023-06-25T11:52:35.156Z,22.63
2023-06-25T11:55:03.995Z,22.64
2023-06-25T11:57:32.416Z,22.66
2023-06-25T12:00:00.588Z,22.69
2023-06-25T12:02:44.501Z,22.71
2023-06-25T12:05:17.785Z,22.69
2023-06-25T12:07:46.205Z,22.68
2023-06-25T12:10:14.593Z,22.65
2023-06-25T12:12:42.653Z,22.61
2023-06-25T12:15:10.595Z,22.55
2023-06-25T12:17:38.611Z,22.52
2023-06-25T12:20:07.437Z,22.50
2023-06-25T12:22:35.760Z,22.49
2023-06-25T12:25:05.439Z,22.47
2023-06-25T12:27:33.430Z,22.44
2023-06-25T12:30:01.836Z,22.39
2023-06-25T12:32:29.897Z,22.34
2023-06-25T12:34:57.912Z,22.29
2023-06-25T12:37:25.891Z,22.27
2023-06-25T12:39:54.219Z,22.26
2023-06-25T12:42:22.310Z,22.24
2023-06-25T12:44:50.310Z,22.24
2023-06-25T12:47:18.463Z,22.26
2023-06-25T12:49:46.703Z,22.30
2023-06-25T12:52:14.884Z,22.31
2023-06-25T12:54:44.528Z,22.36
2023-06-25T12:57:12.631Z,22.43
2023-06-25T12:59:40.666Z,22.50
2023-06-25T13:02:08.948Z,22.55
2023-06-25T13:04:37.186Z,22.58
2023-06-25T13:07:05.336Z,22.53
2023-06-25T13:09:34.141Z,22.46
2023-06-25T13:12:02.231Z,22.42
2023-06-25T13:14:30.215Z,22.39
2023-06-25T13:16:58.146Z,22.30
2023-06-25T13:19:26.432Z,22.21
2023-06-25T13:21:54.612Z,22.14
2023-06-25T13:24:22.986Z,22.10
2023-06-25T13:26:52.647Z,22.07
2023-06-25T13:29:20.972Z,22.01
2023-06-25T13:31:50.785Z,21.94
2023-06-25T13:34:19.165Z,21.82
2023-06-25T13:36:48.355Z,21.71
2023-06-25T13:39:16.554Z,21.63
2023-06-25T13:41:44.871Z,21.56
2023-06-25T13:44:12.813Z,21.51
2023-06-25T13:46:41.222Z,21.49
2023-06-25T13:49:10.359Z,21.47
2023-06-25T13:51:38.322Z,21.45
2023-06-25T13:54:06.510Z,21.41
2023-06-25T13:56:34.608Z,21.41
2023-06-25T13:59:02.787Z,21.41
2023-06-25T14:01:30.762Z,21.40
2023-06-25T14:03:58.819Z,21.43
2023-06-25T14:06:27.383Z,21.45
2023-06-25T14:08:56.682Z,21.43
2023-06-25T14:11:26.283Z,21.28
2023-06-25T14:13:54.569Z,21.14
2023-06-25T14:16:22.720Z,21.02
2023-06-25T14:18:50.859Z,21.00
2023-06-25T14:21:20.199Z,21.02
2023-06-25T14:23:49.827Z,21.08
2023-06-25T14:26:17.920Z,21.15
2023-06-25T14:28:47.274Z,21.20
2023-06-25T14:31:16.940Z,21.21
2023-06-25T14:33:44.902Z,21.21
2023-06-25T14:36:12.934Z,21.22
2023-06-25T14:38:42.846Z,21.26
2023-06-25T14:41:10.831Z,21.29
2023-06-25T14:43:39.201Z,21.33
2023-06-25T14:46:07.382Z,21.36
2023-06-25T14:48:35.723Z,21.30
2023-06-25T14:51:04.044Z,21.31
2023-06-25T14:53:32.405Z,21.32
2023-06-25T14:56:01.201Z,21.32
2023-06-25T14:58:29.880Z,21.40
2023-06-25T15:00:58.054Z,21.50
2023-06-25T15:03:28.872Z,21.58
2023-06-25T15:06:10.119Z,21.70
2023-06-25T15:08:39.979Z,21.76
2023-06-25T15:11:08.162Z,21.82
2023-06-25T15:13:37.214Z,21.81
2023-06-25T15:16:05.933Z,21.80
2023-06-25T15:18:34.007Z,21.84
2023-06-25T15:21:01.987Z,21.87
2023-06-25T15:23:30.480Z,21.93
2023-06-25T15:25:58.444Z,22.03
2023-06-25T15:32:09.723Z,22.22
2023-06-25T15:34:37.760Z,22.26
2023-06-25T15:37:05.783Z,22.28
2023-06-25T15:39:33.799Z,22.26
2023-06-25T15:42:02.238Z,22.23
2023-06-25T15:44:30.486Z,22.22
2023-06-25T15:46:58.765Z,22.15
2023-06-25T15:49:26.945Z,22.11
2023-06-25T15:51:55.121Z,22.15
2023-06-25T15:54:25.987Z,22.17
2023-06-25T15:56:54.761Z,22.13
2023-06-25T15:59:22.994Z,22.13
2023-06-25T16:01:51.256Z,22.12
2023-06-25T16:04:19.281Z,22.09
2023-06-25T16:06:47.425Z,22.03
2023-06-25T16:09:15.539Z,21.97
2023-06-25T16:11:43.558Z,21.95
2023-06-25T16:14:11.476Z,21.91
2023-06-25T16:16:39.628Z,21.91
2023-06-25T16:19:39.455Z,21.88
2023-06-25T16:21:55.628Z,21.85
2023-06-25T16:24:23.834Z,21.79
2023-06-25T16:26:51.891Z,21.76
2023-06-25T16:29:21.510Z,21.77
2023-06-25T16:31:49.984Z,21.80
2023-06-25T16:34:18.047Z,21.85
2023-06-25T16:36:46.139Z,21.90
2023-06-25T16:39:14.491Z,21.94
2023-06-25T16:41:42.716Z,21.95
2023-06-25T16:44:10.833Z,21.97
2023-06-25T16:46:38.975Z,21.97
2023-06-25T16:49:07.902Z,21.97
2023-06-25T16:51:35.992Z,21.96
2023-06-25T16:54:06.969Z,21.92
2023-06-25T16:56:35.271Z,21.86
2023-06-25T16:59:04.134Z,21.77
2023-06-25T17:01:32.628Z,21.64
2023-06-25T17:04:00.776Z,21.52
2023-06-25T17:06:29.012Z,21.45
2023-06-25T17:08:57.104Z,21.41
2023-06-25T17:11:27.638Z,21.35
2023-06-25T17:13:55.808Z,21.28
2023-06-25T17:16:24.391Z,21.23
2023-06-25T17:18:52.398Z,21.17
2023-06-25T17:21:20.561Z,21.11
2023-06-25T17:23:48.902Z,21.01
2023-06-25T17:26:17.280Z,20.93
2023-06-25T17:28:45.295Z,20.85
2023-06-25T17:31:13.283Z,20.77
2023-06-25T17:33:41.393Z,20.69
2023-06-25T17:36:09.659Z,20.61
2023-06-25T17:38:37.950Z,20.55
2023-06-25T17:41:06.005Z,20.50
2023-06-25T17:43:34.190Z,20.44
2023-06-25T17:46:02.172Z,20.32
2023-06-25T17:48:30.428Z,20.19
2023-06-25T17:51:01.001Z,20.09
2023-06-25T17:53:31.391Z,19.98
2023-06-25T17:56:00.576Z,19.91
2023-06-25T17:58:29.718Z,19.83
2023-06-25T18:00:57.879Z,19.73
2023-06-25T18:03:26.393Z,19.67
2023-06-25T18:05:54.754Z,19.63
2023-06-25T18:08:22.872Z,19.60
2023-06-25T18:10:54.033Z,19.62
2023-06-25T18:13:22.632Z,19.67
2023-06-25T18:15:50.706Z,19.72
2023-06-25T18:18:22.688Z,19.75
2023-06-25T18:20:51.139Z,19.80
2023-06-25T18:23:19.513Z,19.85
2023-06-25T18:25:47.698Z,19.92
2023-06-25T18:28:15.771Z,19.96
2023-06-25T18:30:43.897Z,20.00
2023-06-25T18:33:13.894Z,20.04
2023-06-25T18:35:42.466Z,20.04
2023-06-25T18:38:11.930Z,20.01
2023-06-25T18:40:40.151Z,20.02
2023-06-25T18:43:08.390Z,20.04
2023-06-25T18:45:36.659Z,20.03
2023-06-25T18:48:05.276Z,20.04
2023-06-25T18:50:33.296Z,20.07
2023-06-25T18:53:01.606Z,20.07
2023-06-25T18:55:29.596Z,20.04
2023-06-25T18:57:57.850Z,20.03
2023-06-25T19:00:26.229Z,19.98
2023-06-25T19:02:54.621Z,19.94
2023-06-25T19:05:23.089Z,19.90
2023-06-25T19:07:51.271Z,19.88
2023-06-25T19:10:19.487Z,19.86
2023-06-25T19:12:47.810Z,19.83
2023-06-25T19:15:17.589Z,19.76
2023-06-25T19:17:45.783Z,19.73
2023-06-25T19:20:14.003Z,19.71
2023-06-25T19:22:56.474Z,19.68
2023-06-25T19:25:25.089Z,19.66
2023-06-25T19:27:55.391Z,19.63
2023-06-25T19:30:23.561Z,19.61
2023-06-25T19:32:52.875Z,19.59
2023-06-25T19:35:21.494Z,19.57
2023-06-25T19:37:50.548Z,19.56
2023-06-25T19:40:18.588Z,19.54
2023-06-25T19:42:48.617Z,19.54
2023-06-25T19:45:17.761Z,19.54
2023-06-25T19:47:46.080Z,19.56
2023-06-25T19:50:14.486Z,19.57
2023-06-25T19:52:42.483Z,19.60
2023-06-25T19:55:10.557Z,19.59
2023-06-25T19:57:39.213Z,19.57
2023-06-25T20:00:07.914Z,19.54
2023-06-25T20:02:42.874Z,19.57
2023-06-25T20:05:11.736Z,19.62
2023-06-25T20:07:39.933Z,19.66
2023-06-25T20:10:08.678Z,19.68
2023-06-25T20:12:36.733Z,19.63
2023-06-25T20:15:05.249Z,19.59
2023-06-25T20:17:33.440Z,19.58
2023-06-25T20:20:01.790Z,19.58
2023-06-25T20:22:29.989Z,19.60
2023-06-25T20:24:58.351Z,19.60
2023-06-25T20:27:26.622Z,19.60
2023-06-25T20:29:54.600Z,19.60
2023-06-25T20:32:22.612Z,19.58
2023-06-25T20:34:50.727Z,19.54
2023-06-25T20:37:18.916Z,19.50
2023-06-25T20:39:46.924Z,19.44
2023-06-25T20:42:15.279Z,19.41
2023-06-25T20:44:43.735Z,19.38
2023-06-25T20:47:14.513Z,19.35
2023-06-25T20:49:42.791Z,19.32
2023-06-25T20:52:10.908Z,19.29
2023-06-25T20:54:39.201Z,19.24
2023-06-25T20:57:07.478Z,19.21
2023-06-25T20:59:35.754Z,19.17
2023-06-25T21:02:04.050Z,19.12
2023-06-25T21:04:32.097Z,19.06
2023-06-25T21:07:00.342Z,19.01
2023-06-25T21:09:28.590Z,18.98
2023-06-25T21:11:56.729Z,18.97
2023-06-25T21:14:24.712Z,18.96
2023-06-25T21:16:52.760Z,18.95
2023-06-25T21:19:20.841Z,18.95
2023-06-25T21:21:49.027Z,18.92
2023-06-25T21:24:16.986Z,18.90
2023-06-25T21:26:45.148Z,18.88
2023-06-25T21:29:13.078Z,18.85
2023-06-25T21:31:41.203Z,18.83
2023-06-25T21:34:09.230Z,18.83
2023-06-25T21:36:37.264Z,18.84
2023-06-25T21:39:07.996Z,18.84
2023-06-25T21:41:36.558Z,18.83
2023-06-25T21:44:04.779Z,18.83
2023-06-25T21:46:33.147Z,18.84
2023-06-25T21:49:01.386Z,18.85
2023-06-25T21:51:29.486Z,18.85
2023-06-25T21:53:57.647Z,18.81
2023-06-25T21:56:25.802Z,18.77
2023-06-25T21:58:53.883Z,18.74
2023-06-25T22:01:22.281Z,18.71
2023-06-25T22:03:50.537Z,18.70
2023-06-25T22:06:19.025Z,18.71
2023-06-25T22:08:47.086Z,18.71
2023-06-25T22:11:15.368Z,18.69
2023-06-25T22:13:44.050Z,18.65
2023-06-25T22:16:12.018Z,18.60
2023-06-25T22:18:40.045Z,18.56
2023-06-25T22:21:09.300Z,18.52
2023-06-25T22:23:38.627Z,18.50
2023-06-25T22:26:06.578Z,18.48
2023-06-25T22:28:34.573Z,18.43
2023-06-25T22:31:02.616Z,18.39
2023-06-25T22:33:30.794Z,18.32
2023-06-25T22:35:58.946Z,18.23
2023-06-25T22:38:27.220Z,18.15
2023-06-25T22:40:56.113Z,18.06
2023-06-25T22:43:24.121Z,18.01
2023-06-25T22:45:52.283Z,17.97
2023-06-25T22:48:20.335Z,17.92
2023-06-25T22:50:48.819Z,17.89
2023-06-25T22:53:16.990Z,17.87
2023-06-25T22:55:44.971Z,17.86
2023-06-25T22:58:13.863Z,17.85
2023-06-25T23:00:42.632Z,17.85
2023-06-25T23:03:10.900Z,17.85
2023-06-25T23:05:39.529Z,17.84
2023-06-25T23:08:07.719Z,17.85
2023-06-25T23:10:35.808Z,17.85
2023-06-25T23:13:03.995Z,17.86
2023-06-25T23:15:31.971Z,17.88
2023-06-25T23:18:00.278Z,17.89
2023-06-25T23:20:28.259Z,17.93
2023-06-25T23:22:56.261Z,17.95
2023-06-25T23:25:29.250Z,17.97
2023-06-25T23:27:58.753Z,18.02
2023-06-25T23:30:27.510Z,18.06
2023-06-25T23:32:56.134Z,18.09
2023-06-25T23:35:24.453Z,18.13
2023-06-25T23:37:52.640Z,18.17
2023-06-25T23:40:20.904Z,18.22
2023-06-25T23:42:49.069Z,18.26
2023-06-25T23:45:18.005Z,18.29
2023-06-25T23:47:46.693Z,18.30
2023-06-25T23:50:15.301Z,18.33
2023-06-25T23:52:43.921Z,18.36
2023-06-25T23:55:12.199Z,18.39
2023-06-25T23:57:40.153Z,18.40
